Time;durP1;ratioP1;P1;durP2;ratioP2;P2;SDS_P1;SDS_P2;PMS_P1;PMS_P2;Temp;Humidity;BMP_temperature;BMP_pressure;BME280_temperature;BME280_humidity;BME280_pressure;Samples;Min_cycle;Max_cycle;Signal;HPM_P1;HPM_P2
2022/03/10 00:01:06;;;;;;;;;37.75;33.50;;;;;;;;5009771;28;46008;-68
2022/03/10 00:03:31;;;;;;;;;37.50;33.00;;;;;;;;5010041;28;45398;-67
2022/03/10 00:05:56;;;;;;;;;34.00;33.00;;;;;;;;5015697;28;45398;-67
2022/03/10 00:08:21;;;;;;;;;39.75;35.25;;;;;;;;5017121;28;45382;-67
2022/03/10 00:10:47;;;;;;;;;35.25;33.25;;;;;;;;5015177;28;45408;-66
2022/03/10 00:13:12;;;;;;;;;43.50;37.00;;;;;;;;5014221;28;45544;-67
2022/03/10 00:15:37;;;;;;;;;35.25;33.75;;;;;;;;5012125;28;45291;-66
2022/03/10 00:18:02;;;;;;;;;43.50;36.50;;;;;;;;5003388;28;45640;-66
2022/03/10 00:20:28;;;;;;;;;35.00;33.50;;;;;;;;5017167;28;46134;-66
2022/03/10 00:22:55;;;;;;;;;47.25;37.00;;;;;;;;5013908;28;45521;-67
2022/03/10 00:25:21;;;;;;;;;37.75;34.50;;;;;;;;5015072;28;45567;-67
2022/03/10 00:27:47;;;;;;;;;37.00;35.25;;;;;;;;5013922;28;45541;-66
2022/03/10 00:30:12;;;;;;;;;40.50;34.25;;;;;;;;5014020;28;48398;-66
2022/03/10 00:32:44;;;;;;;;;41.25;36.75;;;;;;;;5017244;28;45312;-69
2022/03/10 00:35:10;;;;;;;;;39.75;32.50;;;;;;;;5031072;28;45434;-66
2022/03/10 00:37:35;;;;;;;;;41.75;35.75;;;;;;;;5014718;28;45418;-67
2022/03/10 00:40:00;;;;;;;;;42.25;37.00;;;;;;;;5013570;28;47549;-65
2022/03/10 00:42:26;;;;;;;;;33.25;31.25;;;;;;;;5013795;28;46039;-66
2022/03/10 00:44:51;;;;;;;;;35.75;31.00;;;;;;;;5014688;28;45427;-67
2022/03/10 00:47:16;;;;;;;;;40.25;36.00;;;;;;;;5015825;28;45566;-67
2022/03/10 00:49:42;;;;;;;;;35.50;33.25;;;;;;;;5013372;28;47684;-67
2022/03/10 00:52:07;;;;;;;;;37.50;35.00;;;;;;;;5013725;28;46376;-66
2022/03/10 00:54:32;;;;;;;;;42.50;35.25;;;;;;;;5013769;28;45438;-66
2022/03/10 00:56:57;;;;;;;;;39.75;33.75;;;;;;;;5013640;28;45385;-66
2022/03/10 00:59:22;;;;;;;;;37.25;34.75;;;;;;;;5015371;28;47160;-67
2022/03/10 01:01:48;;;;;;;;;41.50;34.75;;;;;;;;5014544;28;45355;-67
2022/03/10 01:04:13;;;;;;;;;36.25;31.00;;;;;;;;5013318;28;45269;-67
2022/03/10 01:06:39;;;;;;;;;36.75;32.50;;;;;;;;5013603;28;45688;-67
2022/03/10 01:09:04;;;;;;;;;35.75;32.25;;;;;;;;5012808;28;47180;-66
2022/03/10 01:11:30;;;;;;;;;33.00;30.00;;;;;;;;5014912;28;45387;-66
2022/03/10 01:13:55;;;;;;;;;38.50;35.50;;;;;;;;5013621;28;45385;-66
2022/03/10 01:16:20;;;;;;;;;39.00;34.50;;;;;;;;5014521;28;45508;-67
2022/03/10 01:18:46;;;;;;;;;38.00;33.75;;;;;;;;5014607;28;46326;-67
2022/03/10 01:21:11;;;;;;;;;34.00;33.50;;;;;;;;5013640;28;45529;-68
2022/03/10 01:23:36;;;;;;;;;31.00;29.50;;;;;;;;5016693;28;45862;-67
2022/03/10 01:26:01;;;;;;;;;36.25;34.75;;;;;;;;5014238;28;45516;-66
2022/03/10 01:28:26;;;;;;;;;30.25;28.25;;;;;;;;5014232;28;45349;-66
2022/03/10 01:30:52;;;;;;;;;33.25;32.50;;;;;;;;5012870;28;45409;-65
2022/03/10 01:33:17;;;;;;;;;34.00;30.75;;;;;;;;5011953;28;45399;-66
2022/03/10 01:35:42;;;;;;;;;38.25;31.75;;;;;;;;5016128;28;45342;-67
2022/03/10 01:38:08;;;;;;;;;37.50;35.00;;;;;;;;5014127;28;46371;-67
2022/03/10 01:40:33;;;;;;;;;33.75;32.75;;;;;;;;5012744;28;45389;-69
2022/03/10 01:42:58;;;;;;;;;38.75;35.25;;;;;;;;5014150;28;45555;-66
2022/03/10 01:45:23;;;;;;;;;37.25;34.00;;;;;;;;5012854;28;45485;-67
2022/03/10 01:47:49;;;;;;;;;31.25;28.25;;;;;;;;5015358;28;46450;-67
2022/03/10 01:50:15;;;;;;;;;40.00;34.00;;;;;;;;5013441;28;45220;-67
2022/03/10 01:52:41;;;;;;;;;31.00;28.50;;;;;;;;5013056;28;45465;-66
2022/03/10 01:55:06;;;;;;;;;34.75;31.75;;;;;;;;5013783;28;45568;-67
2022/03/10 01:57:32;;;;;;;;;39.00;33.50;;;;;;;;5013514;28;46889;-66
2022/03/10 01:59:57;;;;;;;;;36.75;33.75;;;;;;;;5012761;28;45673;-67
2022/03/10 02:02:23;;;;;;;;;34.25;32.00;;;;;;;;5013678;28;45428;-68
2022/03/10 02:04:48;;;;;;;;;35.50;34.00;;;;;;;;5013753;28;45564;-66
2022/03/10 02:12:42;;;;;;;;;35.75;33.00;;;;;;;;5012572;28;45501;-68
2022/03/10 02:17:58;;;;;;;;;42.50;36.75;;;;;;;;5011917;28;45458;-66
2022/03/10 02:20:23;;;;;;;;;35.25;32.00;;;;;;;;5013679;28;45874;-66
2022/03/10 02:22:49;;;;;;;;;41.00;34.75;;;;;;;;5011153;28;45660;-65
2022/03/10 02:25:15;;;;;;;;;35.75;34.00;;;;;;;;5007842;28;45480;-67
2022/03/10 02:27:41;;;;;;;;;36.75;34.50;;;;;;;;4997491;28;46078;-66
2022/03/10 02:30:06;;;;;;;;;39.00;35.25;;;;;;;;4994424;28;45526;-66
2022/03/10 02:32:32;;;;;;;;;32.75;28.75;;;;;;;;4999914;28;45481;-65
2022/03/10 02:34:57;;;;;;;;;37.75;36.00;;;;;;;;4996830;28;45410;-65
2022/03/10 02:37:22;;;;;;;;;33.00;32.75;;;;;;;;4996488;28;47436;-65
2022/03/10 02:39:48;;;;;;;;;33.50;32.25;;;;;;;;4994643;28;45406;-63
2022/03/10 02:42:14;;;;;;;;;33.50;32.75;;;;;;;;4994044;28;45277;-66
2022/03/10 02:44:40;;;;;;;;;38.00;33.25;;;;;;;;5022182;28;45268;-66
2022/03/10 02:47:05;;;;;;;;;40.75;34.00;;;;;;;;4997901;28;45357;-67
2022/03/10 02:49:30;;;;;;;;;37.25;33.25;;;;;;;;4996447;28;45764;-66
2022/03/10 02:51:55;;;;;;;;;30.00;28.75;;;;;;;;4996591;28;45530;-66
2022/03/10 02:54:21;;;;;;;;;38.25;33.50;;;;;;;;4993679;28;45411;-68
2022/03/10 02:56:46;;;;;;;;;47.25;36.00;;;;;;;;4997782;28;45788;-67
2022/03/10 02:59:11;;;;;;;;;38.25;33.75;;;;;;;;4998185;28;45426;-66
2022/03/10 03:01:37;;;;;;;;;37.75;33.25;;;;;;;;4996359;28;45500;-65
2022/03/10 03:04:02;;;;;;;;;38.25;34.25;;;;;;;;4997550;28;45367;-66
2022/03/10 03:06:27;;;;;;;;;42.75;34.00;;;;;;;;4995001;28;45347;-67
2022/03/10 03:08:52;;;;;;;;;37.50;35.25;;;;;;;;4995165;28;46276;-66
2022/03/10 03:11:18;;;;;;;;;34.00;33.00;;;;;;;;4997542;28;45335;-66
2022/03/10 03:13:43;;;;;;;;;38.25;33.75;;;;;;;;4996370;28;45576;-67
2022/03/10 03:16:08;;;;;;;;;38.50;36.00;;;;;;;;4980985;28;47444;-65
2022/03/10 03:18:33;;;;;;;;;39.00;35.25;;;;;;;;4994698;28;47343;-65
2022/03/10 03:20:59;;;;;;;;;32.50;27.25;;;;;;;;4993676;28;45788;-65
2022/03/10 03:23:24;;;;;;;;;35.00;34.00;;;;;;;;4998210;28;45355;-66
2022/03/10 03:25:50;;;;;;;;;33.75;33.50;;;;;;;;4996846;28;46499;-65
2022/03/10 03:28:16;;;;;;;;;37.75;32.50;;;;;;;;4981226;28;45517;-65
2022/03/10 03:30:41;;;;;;;;;35.00;29.00;;;;;;;;4995470;28;45398;-67
2022/03/10 03:33:06;;;;;;;;;36.75;32.50;;;;;;;;4994650;28;45446;-67
2022/03/10 03:35:32;;;;;;;;;31.00;28.50;;;;;;;;5002419;28;45418;-66
2022/03/10 03:37:57;;;;;;;;;31.00;30.75;;;;;;;;4999360;28;45457;-64
2022/03/10 03:40:22;;;;;;;;;29.00;28.00;;;;;;;;4999505;28;46252;-66
2022/03/10 03:42:48;;;;;;;;;32.75;31.75;;;;;;;;4999678;28;45505;-66
2022/03/10 03:45:13;;;;;;;;;31.00;29.75;;;;;;;;4996410;28;46184;-67
2022/03/10 03:47:38;;;;;;;;;35.00;31.75;;;;;;;;5002434;28;45435;-67
2022/03/10 03:50:04;;;;;;;;;33.50;28.50;;;;;;;;4999524;28;45362;-66
2022/03/10 03:52:29;;;;;;;;;36.50;31.50;;;;;;;;5000396;28;45422;-66
2022/03/10 03:54:55;;;;;;;;;38.25;32.75;;;;;;;;5000519;28;45346;-66
2022/03/10 03:57:20;;;;;;;;;42.00;36.00;;;;;;;;4995584;28;45378;-66
2022/03/10 03:59:45;;;;;;;;;32.50;29.50;;;;;;;;5001308;28;45526;-66
2022/03/10 04:02:10;;;;;;;;;28.25;26.75;;;;;;;;5000789;28;45607;-66
2022/03/10 04:04:36;;;;;;;;;33.75;30.00;;;;;;;;4998684;28;48548;-67
2022/03/10 04:07:01;;;;;;;;;34.00;30.25;;;;;;;;4998224;28;45600;-66
2022/03/10 04:09:26;;;;;;;;;36.25;32.75;;;;;;;;4995190;28;45411;-67
2022/03/10 04:11:51;;;;;;;;;27.25;26.50;;;;;;;;4998318;28;45454;-67
2022/03/10 04:14:18;;;;;;;;;37.00;32.75;;;;;;;;5001053;28;45411;-66
2022/03/10 04:16:44;;;;;;;;;34.50;31.75;;;;;;;;4998556;28;46037;-67
2022/03/10 04:19:09;;;;;;;;;35.00;31.25;;;;;;;;4998661;28;45805;-66
2022/03/10 04:21:34;;;;;;;;;32.00;31.00;;;;;;;;4997189;28;45542;-66
2022/03/10 04:23:59;;;;;;;;;33.50;33.50;;;;;;;;4995902;28;46611;-66
2022/03/10 04:26:25;;;;;;;;;31.25;29.75;;;;;;;;5001700;28;45249;-66
2022/03/10 04:28:50;;;;;;;;;37.00;33.25;;;;;;;;4998644;28;45263;-66
2022/03/10 04:31:15;;;;;;;;;37.25;33.75;;;;;;;;4999810;28;45446;-66
2022/03/10 04:33:40;;;;;;;;;35.75;31.00;;;;;;;;4996490;28;48663;-67
2022/03/10 04:36:06;;;;;;;;;34.00;32.50;;;;;;;;4996585;28;45355;-66
2022/03/10 04:38:31;;;;;;;;;33.00;30.25;;;;;;;;5000492;28;45652;-66
2022/03/10 04:40:57;;;;;;;;;43.50;35.50;;;;;;;;4995906;28;45389;-67
2022/03/10 04:43:22;;;;;;;;;35.00;32.00;;;;;;;;4993938;28;48444;-66
2022/03/10 04:45:47;;;;;;;;;36.25;30.50;;;;;;;;4996858;28;46314;-66
2022/03/10 04:48:13;;;;;;;;;37.25;34.25;;;;;;;;4994470;28;45400;-66
2022/03/10 04:50:39;;;;;;;;;30.75;26.00;;;;;;;;5001468;28;45553;-66
2022/03/10 04:53:05;;;;;;;;;31.00;30.00;;;;;;;;4998125;28;48174;-67
2022/03/10 04:55:30;;;;;;;;;36.25;33.00;;;;;;;;4997908;28;45422;-66
2022/03/10 04:57:56;;;;;;;;;34.50;28.75;;;;;;;;4999588;28;45462;-66
2022/03/10 05:00:22;;;;;;;;;30.00;27.50;;;;;;;;4994643;28;45509;-66
2022/03/10 05:02:47;;;;;;;;;37.00;33.50;;;;;;;;4998274;28;48826;-65
2022/03/10 05:05:13;;;;;;;;;34.25;30.50;;;;;;;;4998419;28;45423;-66
2022/03/10 05:07:39;;;;;;;;;34.75;29.75;;;;;;;;4999054;28;45517;-66
2022/03/10 05:10:04;;;;;;;;;43.00;35.00;;;;;;;;4999091;28;45477;-67
2022/03/10 05:12:29;;;;;;;;;31.00;29.75;;;;;;;;4996858;28;46376;-67
2022/03/10 05:14:55;;;;;;;;;31.75;31.75;;;;;;;;4996285;28;46246;-66
2022/03/10 05:17:23;;;;;;;;;27.25;26.00;;;;;;;;4999387;28;45307;-66
2022/03/10 05:19:48;;;;;;;;;31.75;30.75;;;;;;;;4997820;28;45369;-66
2022/03/10 05:22:14;;;;;;;;;41.25;36.00;;;;;;;;4997396;28;46312;-67
2022/03/10 05:24:39;;;;;;;;;30.50;25.00;;;;;;;;4996598;28;45970;-66
2022/03/10 05:27:04;;;;;;;;;31.75;31.75;;;;;;;;4993026;28;45445;-67
2022/03/10 05:29:29;;;;;;;;;33.25;27.00;;;;;;;;4998526;28;45546;-66
2022/03/10 05:31:55;;;;;;;;;36.25;32.25;;;;;;;;4997343;28;46628;-66
2022/03/10 05:34:20;;;;;;;;;32.00;29.25;;;;;;;;4998586;28;45488;-66
2022/03/10 05:36:45;;;;;;;;;30.75;28.00;;;;;;;;4996384;28;47701;-68
2022/03/10 05:39:10;;;;;;;;;32.75;31.25;;;;;;;;4994214;28;45422;-67
2022/03/10 05:41:36;;;;;;;;;34.50;31.75;;;;;;;;5000174;28;48621;-66
2022/03/10 05:44:01;;;;;;;;;33.50;32.50;;;;;;;;4997338;28;45367;-66
2022/03/10 05:46:26;;;;;;;;;39.00;36.00;;;;;;;;4997401;28;45339;-67
2022/03/10 05:48:52;;;;;;;;;32.75;31.00;;;;;;;;4989746;28;45521;-67
2022/03/10 05:51:17;;;;;;;;;30.25;30.25;;;;;;;;4999220;28;45757;-67
2022/03/10 05:53:42;;;;;;;;;33.25;30.25;;;;;;;;5000352;28;45397;-66
2022/03/10 05:56:07;;;;;;;;;35.50;29.75;;;;;;;;4998164;28;45465;-67
2022/03/10 05:58:33;;;;;;;;;34.00;31.75;;;;;;;;4997233;28;45522;-67
2022/03/10 06:00:58;;;;;;;;;32.75;32.00;;;;;;;;4998253;28;45605;-66
2022/03/10 06:03:23;;;;;;;;;34.25;32.75;;;;;;;;4993770;28;45362;-67
2022/03/10 06:05:48;;;;;;;;;36.00;34.50;;;;;;;;4995341;28;45560;-65
2022/03/10 06:08:13;;;;;;;;;36.50;33.75;;;;;;;;4981839;28;45641;-69
2022/03/10 06:10:39;;;;;;;;;41.25;34.50;;;;;;;;4997372;28;46014;-68
2022/03/10 06:13:05;;;;;;;;;32.25;31.00;;;;;;;;4997398;28;45399;-68
2022/03/10 06:15:30;;;;;;;;;38.25;33.75;;;;;;;;4995647;28;45550;-68
2022/03/10 06:17:56;;;;;;;;;23.75;23.25;;;;;;;;4994647;28;45502;-68
2022/03/10 06:20:21;;;;;;;;;39.50;34.50;;;;;;;;5014664;28;46305;-69
2022/03/10 06:22:46;;;;;;;;;35.25;34.00;;;;;;;;4997962;28;45318;-69
2022/03/10 06:25:11;;;;;;;;;40.50;35.50;;;;;;;;4996755;28;45524;-68
2022/03/10 06:27:40;;;;;;;;;27.25;25.50;;;;;;;;4993375;28;45498;-67
2022/03/10 06:30:05;;;;;;;;;38.25;33.50;;;;;;;;5000249;28;47251;-67
2022/03/10 06:32:30;;;;;;;;;33.25;31.50;;;;;;;;4998002;28;45367;-69
2022/03/10 06:34:57;;;;;;;;;32.75;31.25;;;;;;;;5002840;28;45447;-67
2022/03/10 06:37:23;;;;;;;;;38.75;31.00;;;;;;;;4999740;28;45644;-68
2022/03/10 06:39:48;;;;;;;;;31.25;29.75;;;;;;;;4985542;28;46079;-66
2022/03/10 06:42:14;;;;;;;;;34.00;29.50;;;;;;;;4991020;28;45479;-69
2022/03/10 06:44:39;;;;;;;;;30.00;28.25;;;;;;;;5002335;28;45383;-69
2022/03/10 06:47:05;;;;;;;;;35.00;33.50;;;;;;;;4988240;28;47311;-68
2022/03/10 06:49:30;;;;;;;;;28.75;25.25;;;;;;;;4993005;28;48853;-68
2022/03/10 06:51:56;;;;;;;;;38.00;35.00;;;;;;;;5004336;28;45557;-67
2022/03/10 06:54:21;;;;;;;;;32.25;30.00;;;;;;;;4993276;28;45821;-67
2022/03/10 06:56:46;;;;;;;;;38.50;33.25;;;;;;;;4998616;28;45240;-67
2022/03/10 06:59:12;;;;;;;;;34.00;28.75;;;;;;;;4997928;28;46285;-68
2022/03/10 07:01:37;;;;;;;;;40.25;35.75;;;;;;;;4997193;28;45572;-67
2022/03/10 07:04:02;;;;;;;;;39.50;37.25;;;;;;;;4994620;28;45493;-67
2022/03/10 07:06:28;;;;;;;;;38.50;36.75;;;;;;;;4990709;28;45456;-67
2022/03/10 07:08:53;;;;;;;;;37.00;33.00;;;;;;;;5011227;28;47804;-67
2022/03/10 07:11:19;;;;;;;;;36.00;31.25;;;;;;;;5002084;28;45374;-68
2022/03/10 07:13:44;;;;;;;;;33.25;33.25;;;;;;;;4991349;28;45550;-68
2022/03/10 07:16:09;;;;;;;;;34.00;33.00;;;;;;;;4993087;28;45425;-65
2022/03/10 07:18:35;;;;;;;;;33.75;29.50;;;;;;;;4998009;28;46609;-67
2022/03/10 07:21:00;;;;;;;;;35.50;32.50;;;;;;;;4997838;28;45551;-67
2022/03/10 07:23:25;;;;;;;;;36.50;30.25;;;;;;;;5003269;28;45294;-69
2022/03/10 07:25:51;;;;;;;;;40.25;35.75;;;;;;;;4998062;28;45601;-68
2022/03/10 07:28:16;;;;;;;;;37.75;35.50;;;;;;;;4999602;28;47331;-67
2022/03/10 07:30:41;;;;;;;;;41.75;36.25;;;;;;;;4999970;28;45277;-68
2022/03/10 07:33:06;;;;;;;;;40.75;35.25;;;;;;;;4997131;28;45427;-67
2022/03/10 07:35:32;;;;;;;;;39.00;34.50;;;;;;;;5001865;28;45394;-68
2022/03/10 07:37:59;;;;;;;;;42.50;37.25;;;;;;;;4999765;28;48420;-68
2022/03/10 07:40:24;;;;;;;;;41.00;36.50;;;;;;;;4999266;28;45545;-68
2022/03/10 07:42:49;;;;;;;;;36.25;32.50;;;;;;;;4999184;28;45339;-67
2022/03/10 07:45:14;;;;;;;;;39.75;34.25;;;;;;;;4996571;28;45317;-68
2022/03/10 07:47:40;;;;;;;;;42.25;36.25;;;;;;;;5001141;28;46357;-68
2022/03/10 07:50:06;;;;;;;;;37.50;33.75;;;;;;;;5000540;28;45697;-68
2022/03/10 07:52:31;;;;;;;;;43.25;37.25;;;;;;;;5000453;28;45446;-68
2022/03/10 07:54:56;;;;;;;;;38.50;35.75;;;;;;;;4999246;28;45562;-68
2022/03/10 07:57:21;;;;;;;;;37.00;32.75;;;;;;;;4997001;28;46314;-69
2022/03/10 07:59:47;;;;;;;;;37.75;35.00;;;;;;;;5001078;28;45359;-67
2022/03/10 08:02:13;;;;;;;;;37.50;33.75;;;;;;;;4998340;28;45324;-68
2022/03/10 08:04:38;;;;;;;;;36.50;35.00;;;;;;;;4997222;28;45433;-68
2022/03/10 08:07:03;;;;;;;;;43.00;35.50;;;;;;;;4999908;28;45972;-67
2022/03/10 08:09:29;;;;;;;;;35.00;33.75;;;;;;;;4996549;28;45496;-67
2022/03/10 08:11:54;;;;;;;;;35.25;33.75;;;;;;;;4999213;28;45332;-67
2022/03/10 08:14:19;;;;;;;;;39.25;34.75;;;;;;;;5012762;28;45420;-68
2022/03/10 08:16:45;;;;;;;;;38.75;36.25;;;;;;;;5001952;28;46152;-67
2022/03/10 08:19:10;;;;;;;;;44.25;37.50;;;;;;;;4999721;28;45434;-68
2022/03/10 08:21:35;;;;;;;;;41.00;36.50;;;;;;;;4997179;28;45446;-68
2022/03/10 08:24:00;;;;;;;;;42.25;34.00;;;;;;;;4996164;28;45511;-67
2022/03/10 08:26:26;;;;;;;;;40.00;35.25;;;;;;;;5001652;28;46352;-68
2022/03/10 08:28:53;;;;;;;;;39.50;35.00;;;;;;;;4998806;28;45478;-68
2022/03/10 08:31:18;;;;;;;;;36.00;33.50;;;;;;;;4999559;28;45318;-68
2022/03/10 08:33:44;;;;;;;;;26.00;24.75;;;;;;;;4999520;28;45248;-68
2022/03/10 08:36:10;;;;;;;;;22.25;20.75;;;;;;;;4995860;28;49533;-68
2022/03/10 08:38:35;;;;;;;;;33.00;31.75;;;;;;;;5000564;28;45352;-68
2022/03/10 08:41:01;;;;;;;;;40.00;33.25;;;;;;;;4997103;28;45204;-68
2022/03/10 08:43:29;;;;;;;;;33.75;32.00;;;;;;;;4997213;28;45477;-68
2022/03/10 08:45:54;;;;;;;;;38.50;32.00;;;;;;;;4999289;28;45885;-68
2022/03/10 08:48:20;;;;;;;;;33.75;31.00;;;;;;;;4995859;28;45448;-68
2022/03/10 08:50:45;;;;;;;;;33.00;30.75;;;;;;;;5001061;28;45367;-67
2022/03/10 08:53:10;;;;;;;;;31.50;30.00;;;;;;;;5015116;28;45595;-69
2022/03/10 08:55:36;;;;;;;;;28.00;26.25;;;;;;;;4999585;28;46256;-69
2022/03/10 08:58:02;;;;;;;;;30.75;29.50;;;;;;;;4999554;28;45383;-70
2022/03/10 09:00:27;;;;;;;;;33.50;30.25;;;;;;;;4996891;28;45338;-68
2022/03/10 09:02:52;;;;;;;;;31.00;28.75;;;;;;;;4999082;28;45457;-69
2022/03/10 09:05:18;;;;;;;;;28.50;27.00;;;;;;;;5015365;28;48099;-69
2022/03/10 09:07:43;;;;;;;;;34.00;32.00;;;;;;;;4999011;28;45466;-70
2022/03/10 09:10:09;;;;;;;;;27.50;26.75;;;;;;;;4999385;28;45342;-67
2022/03/10 09:12:35;;;;;;;;;31.00;27.75;;;;;;;;4996216;28;45355;-68
2022/03/10 09:15:00;;;;;;;;;31.75;29.50;;;;;;;;4995039;28;48577;-68
2022/03/10 09:17:25;;;;;;;;;29.00;25.75;;;;;;;;5001112;28;45426;-69
2022/03/10 09:19:51;;;;;;;;;32.00;28.25;;;;;;;;4998000;28;45490;-69
2022/03/10 09:22:20;;;;;;;;;29.25;25.75;;;;;;;;4997855;28;45429;-69
2022/03/10 09:24:45;;;;;;;;;28.00;26.75;;;;;;;;4997297;28;47996;-69
2022/03/10 09:27:10;;;;;;;;;32.25;27.75;;;;;;;;4993492;28;45631;-68
2022/03/10 09:29:36;;;;;;;;;26.00;23.75;;;;;;;;4999845;28;45370;-69
2022/03/10 09:32:02;;;;;;;;;27.50;25.25;;;;;;;;4999157;28;45338;-67
2022/03/10 09:34:27;;;;;;;;;24.50;24.50;;;;;;;;4997833;28;47415;-68
2022/03/10 09:36:52;;;;;;;;;28.25;27.00;;;;;;;;4997627;28;45536;-67
2022/03/10 09:39:18;;;;;;;;;26.75;26.75;;;;;;;;4995103;28;45239;-68
2022/03/10 09:41:43;;;;;;;;;25.00;20.50;;;;;;;;4999200;28;45264;-68
2022/03/10 09:44:13;;;;;;;;;23.25;22.50;;;;;;;;4997280;28;47501;-68
2022/03/10 09:46:38;;;;;;;;;23.00;22.25;;;;;;;;4997534;28;45382;-69
2022/03/10 09:49:04;;;;;;;;;23.75;22.00;;;;;;;;4982465;28;46229;-68
2022/03/10 09:51:29;;;;;;;;;22.50;22.00;;;;;;;;4996612;28;45503;-68
2022/03/10 09:53:54;;;;;;;;;22.00;21.75;;;;;;;;4997694;28;45733;-69
2022/03/10 09:56:20;;;;;;;;;22.00;21.50;;;;;;;;4998458;28;45436;-69
2022/03/10 09:58:45;;;;;;;;;23.50;23.50;;;;;;;;4997464;28;45494;-69
2022/03/10 10:01:10;;;;;;;;;24.25;24.25;;;;;;;;5000029;28;45407;-69
2022/03/10 10:03:39;;;;;;;;;22.00;20.50;;;;;;;;4996819;28;45508;-68
2022/03/10 10:06:04;;;;;;;;;20.25;20.25;;;;;;;;4995481;28;45461;-68
2022/03/10 10:08:31;;;;;;;;;27.25;26.00;;;;;;;;5000865;28;45381;-68
2022/03/10 10:10:56;;;;;;;;;24.75;22.75;;;;;;;;4997354;28;45473;-68
2022/03/10 10:13:31;;;;;;;;;21.50;21.50;;;;;;;;4996780;28;46690;-68
2022/03/10 10:16:02;;;;;;;;;17.25;16.75;;;;;;;;4997137;28;45290;-68
2022/03/10 10:18:28;;;;;;;;;19.00;19.00;;;;;;;;4995645;28;45410;-69
2022/03/10 10:20:54;;;;;;;;;15.75;14.75;;;;;;;;4996474;28;45395;-69
2022/03/10 10:23:20;;;;;;;;;20.00;17.00;;;;;;;;4999194;28;47097;-68
2022/03/10 10:25:54;;;;;;;;;19.00;17.67;;;;;;;;4997906;28;45318;-69
2022/03/10 10:28:39;;;;;;;;;22.00;16.50;;;;;;;;4996870;28;45426;-68
2022/03/10 10:31:05;;;;;;;;;18.00;17.50;;;;;;;;4997942;28;45545;-69
2022/03/10 10:33:34;;;;;;;;;17.00;17.00;;;;;;;;4994514;28;48443;-69
2022/03/10 10:36:12;;;;;;;;;16.75;15.75;;;;;;;;4994733;28;45510;-71
2022/03/10 10:38:38;;;;;;;;;17.50;15.25;;;;;;;;4999749;28;45367;-70
2022/03/10 10:41:20;;;;;;;;;16.00;16.00;;;;;;;;4995210;28;45434;-69
2022/03/10 10:43:47;;;;;;;;;15.75;15.75;;;;;;;;5000162;28;48273;-69
2022/03/10 10:46:22;;;;;;;;;18.00;17.25;;;;;;;;5001223;28;45287;-68
2022/03/10 10:48:47;;;;;;;;;14.50;14.25;;;;;;;;5000377;28;45362;-68
2022/03/10 10:51:13;;;;;;;;;14.50;14.50;;;;;;;;4996002;28;45762;-69
2022/03/10 10:53:39;;;;;;;;;14.50;14.50;;;;;;;;5002215;28;46883;-69
2022/03/10 10:56:05;;;;;;;;;18.00;16.75;;;;;;;;5000184;28;45485;-69
2022/03/10 10:58:31;;;;;;;;;11.75;10.00;;;;;;;;4999993;28;45489;-69
2022/03/10 11:00:57;;;;;;;;;15.50;14.75;;;;;;;;5000030;28;45628;-69
2022/03/10 11:03:26;;;;;;;;;12.50;12.00;;;;;;;;4996369;28;48514;-68
2022/03/10 11:05:53;;;;;;;;;15.75;14.75;;;;;;;;4999644;28;46117;-69
2022/03/10 11:08:20;;;;;;;;;16.75;16.75;;;;;;;;5002284;28;45469;-68
2022/03/10 11:10:45;;;;;;;;;16.50;16.25;;;;;;;;4999813;28;45541;-70
2022/03/10 11:13:11;;;;;;;;;13.75;12.00;;;;;;;;5000780;28;46764;-70
2022/03/10 11:15:37;;;;;;;;;17.00;15.25;;;;;;;;4998180;28;45887;-69
2022/03/10 11:18:03;;;;;;;;;12.25;12.25;;;;;;;;4997508;28;45425;-69
2022/03/10 11:20:30;;;;;;;;;15.75;15.00;;;;;;;;5001601;28;45642;-69
2022/03/10 11:23:13;;;;;;;;;14.00;14.00;;;;;;;;4998822;28;45546;-69
2022/03/10 11:25:51;;;;;;;;;18.25;18.00;;;;;;;;4999477;28;46103;-70
2022/03/10 11:28:27;;;;;;;;;15.75;14.75;;;;;;;;4999451;28;45454;-71
2022/03/10 11:30:57;;;;;;;;;12.50;12.50;;;;;;;;4999553;28;45581;-69
2022/03/10 11:33:28;;;;;;;;;10.25;9.50;;;;;;;;4995743;28;48090;-70
2022/03/10 11:35:54;;;;;;;;;15.75;14.75;;;;;;;;5000067;28;45407;-69
2022/03/10 11:38:19;;;;;;;;;14.50;12.25;;;;;;;;5001812;28;45359;-70
2022/03/10 11:40:52;;;;;;;;;13.25;11.75;;;;;;;;4999715;28;45220;-70
2022/03/10 11:43:28;;;;;;;;;12.00;12.00;;;;;;;;4990878;28;46568;-71
2022/03/10 11:46:13;;;;;;;;;13.50;13.50;;;;;;;;4986672;28;46060;-71
2022/03/10 11:48:38;;;;;;;;;10.50;10.25;;;;;;;;4997738;28;45426;-71
2022/03/10 11:51:10;;;;;;;;;14.50;11.25;;;;;;;;4996906;28;45742;-72
2022/03/10 11:53:55;;;;;;;;;11.25;10.25;;;;;;;;4998726;28;47044;-71
2022/03/10 11:56:32;;;;;;;;;15.25;13.75;;;;;;;;5013063;28;46597;-72
2022/03/10 11:59:15;;;;;;;;;17.75;15.75;;;;;;;;4995670;28;45464;-72
2022/03/10 12:01:43;;;;;;;;;9.50;9.50;;;;;;;;4997347;28;47330;-71
2022/03/10 12:04:13;;;;;;;;;11.25;11.25;;;;;;;;4998041;28;46335;-71
2022/03/10 12:06:38;;;;;;;;;14.75;14.75;;;;;;;;4998671;28;45292;-71
2022/03/10 12:09:06;;;;;;;;;13.50;12.25;;;;;;;;4996203;28;45734;-70
2022/03/10 12:11:47;;;;;;;;;13.75;13.75;;;;;;;;4996878;28;45588;-71
2022/03/10 12:14:25;;;;;;;;;13.25;13.25;;;;;;;;4995320;28;47414;-71
2022/03/10 12:16:50;;;;;;;;;13.50;13.50;;;;;;;;4997532;28;45620;-71
2022/03/10 12:19:16;;;;;;;;;14.00;12.75;;;;;;;;4988933;28;45378;-71
2022/03/10 12:21:41;;;;;;;;;8.00;7.25;;;;;;;;4995857;28;45499;-72
2022/03/10 12:24:07;;;;;;;;;13.75;12.00;;;;;;;;4996036;28;45953;-72
2022/03/10 12:26:36;;;;;;;;;10.50;10.50;;;;;;;;5031126;28;45354;-71
2022/03/10 12:29:12;;;;;;;;;13.25;9.75;;;;;;;;5025557;28;45300;-71
2022/03/10 12:31:38;;;;;;;;;10.75;10.50;;;;;;;;5028708;28;45437;-71
2022/03/10 12:34:03;;;;;;;;;13.75;13.00;;;;;;;;5027265;28;48654;-71
2022/03/10 12:36:51;;;;;;;;;14.00;12.75;;;;;;;;5028714;28;46047;-70
2022/03/10 12:39:17;;;;;;;;;15.50;12.25;;;;;;;;4997309;28;45494;-71
2022/03/10 12:41:48;;;;;;;;;11.00;11.00;;;;;;;;5026664;28;45514;-71
2022/03/10 12:44:16;;;;;;;;;8.25;7.25;;;;;;;;5029381;28;45734;-71
2022/03/10 12:46:42;;;;;;;;;9.00;9.00;;;;;;;;5027192;28;45433;-73
2022/03/10 12:49:11;;;;;;;;;12.50;11.25;;;;;;;;5027284;28;45380;-72
2022/03/10 12:51:38;;;;;;;;;10.75;10.75;;;;;;;;5027181;28;45463;-71
2022/03/10 12:54:04;;;;;;;;;9.50;8.75;;;;;;;;5032275;28;45719;-72
2022/03/10 12:56:41;;;;;;;;;8.25;8.25;;;;;;;;5034556;28;45409;-72
2022/03/10 12:59:06;;;;;;;;;8.00;8.00;;;;;;;;5028963;28;45311;-71
2022/03/10 13:01:31;;;;;;;;;9.75;8.75;;;;;;;;5028128;28;45321;-71
2022/03/10 13:03:57;;;;;;;;;8.75;8.75;;;;;;;;5028306;28;46122;-71
2022/03/10 13:06:23;;;;;;;;;10.50;9.50;;;;;;;;5025762;28;45482;-71
2022/03/10 13:08:49;;;;;;;;;7.00;7.00;;;;;;;;5036345;28;45333;-70
2022/03/10 13:11:18;;;;;;;;;7.00;7.00;;;;;;;;5045728;28;45370;-72
2022/03/10 13:13:43;;;;;;;;;6.75;5.25;;;;;;;;5027977;28;45862;-71
2022/03/10 13:16:09;;;;;;;;;7.50;6.50;;;;;;;;5027297;28;45344;-72
2022/03/10 13:18:44;;;;;;;;;9.00;9.00;;;;;;;;5027398;28;45452;-72
2022/03/10 13:21:09;;;;;;;;;9.75;9.75;;;;;;;;5029183;28;45655;-69
2022/03/10 13:23:35;;;;;;;;;9.50;8.25;;;;;;;;5033538;28;46683;-70
2022/03/10 13:26:01;;;;;;;;;11.25;10.25;;;;;;;;5028553;28;45380;-69
2022/03/10 13:28:26;;;;;;;;;11.00;11.00;;;;;;;;5029000;28;45574;-70
2022/03/10 13:30:51;;;;;;;;;10.25;8.50;;;;;;;;5028769;28;45536;-68
2022/03/10 13:33:17;;;;;;;;;11.25;11.25;;;;;;;;5028930;28;48427;-69
2022/03/10 13:35:47;;;;;;;;;9.25;8.75;;;;;;;;5043202;28;46570;-69
2022/03/10 13:38:18;;;;;;;;;11.00;9.50;;;;;;;;5034295;28;45489;-70
2022/03/10 13:40:43;;;;;;;;;8.75;8.75;;;;;;;;5012932;28;45403;-70
2022/03/10 13:43:18;;;;;;;;;7.00;7.00;;;;;;;;5012731;28;47649;-69
2022/03/10 13:45:44;;;;;;;;;6.50;6.50;;;;;;;;5013255;28;46348;-70
2022/03/10 13:48:19;;;;;;;;;8.00;6.50;;;;;;;;5013201;28;45878;-69
2022/03/10 13:50:45;;;;;;;;;8.75;8.75;;;;;;;;5027684;28;45429;-70
2022/03/10 13:53:10;;;;;;;;;9.00;6.75;;;;;;;;5012631;28;45475;-70
2022/03/10 13:55:43;;;;;;;;;8.75;7.25;;;;;;;;5011378;28;45457;-70
2022/03/10 13:58:09;;;;;;;;;9.25;9.25;;;;;;;;5014126;28;45482;-71
2022/03/10 14:00:35;;;;;;;;;9.25;8.25;;;;;;;;5014291;28;45604;-70
2022/03/10 14:03:14;;;;;;;;;9.00;8.25;;;;;;;;5012816;28;47743;-70
2022/03/10 14:05:39;;;;;;;;;9.50;9.25;;;;;;;;5014193;28;46836;-70
2022/03/10 14:08:12;;;;;;;;;7.00;7.00;;;;;;;;5014026;28;45559;-69
2022/03/10 14:10:38;;;;;;;;;9.75;8.75;;;;;;;;5012486;28;45785;-69
2022/03/10 14:13:03;;;;;;;;;8.00;8.00;;;;;;;;5012609;28;48640;-71
2022/03/10 14:15:34;;;;;;;;;11.25;10.00;;;;;;;;5014238;28;45266;-69
2022/03/10 14:18:00;;;;;;;;;10.25;9.00;;;;;;;;5012993;28;45357;-70
2022/03/10 14:20:44;;;;;;;;;12.50;11.00;;;;;;;;5014182;28;45412;-69
2022/03/10 14:23:10;;;;;;;;;10.50;10.50;;;;;;;;5012405;28;47763;-70